createdAt,value
2022-11-16T00:00:58.926Z,26.90
2022-11-16T00:03:26.045Z,24.60
2022-11-16T00:05:59.357Z,25.63
2022-11-16T00:08:26.793Z,24.60
2022-11-16T00:10:53.884Z,25.33
2022-11-16T00:13:21.081Z,28.43
2022-11-16T00:15:54.705Z,27.03
2022-11-16T00:18:21.865Z,27.10
2022-11-16T00:20:49.106Z,26.07
2022-11-16T00:23:16.172Z,25.90
2022-11-16T00:25:43.168Z,25.50
2022-11-16T00:28:10.352Z,21.90
2022-11-16T00:30:37.457Z,21.50
2022-11-16T00:33:05.515Z,22.70
2022-11-16T00:35:32.599Z,24.23
2022-11-16T00:37:59.594Z,21.47
2022-11-16T00:40:26.669Z,24.50
2022-11-16T00:42:53.710Z,24.27
2022-11-16T00:45:20.646Z,23.53
2022-11-16T00:47:47.808Z,25.03
2022-11-16T00:50:15.418Z,24.57
2022-11-16T00:52:42.731Z,25.47
2022-11-16T00:55:09.804Z,25.60
2022-11-16T00:57:37.101Z,25.07
2022-11-16T01:00:04.982Z,24.13
2022-11-16T01:02:34.288Z,26.00
2022-11-16T01:05:02.353Z,25.87
2022-11-16T01:07:29.782Z,25.70
2022-11-16T01:09:56.810Z,23.40
2022-11-16T01:12:23.884Z,22.67
2022-11-16T01:14:51.058Z,24.23
2022-11-16T01:17:18.001Z,26.33
2022-11-16T01:19:45.056Z,23.03
2022-11-16T01:22:12.088Z,23.43
2022-11-16T01:24:39.359Z,23.90
2022-11-16T01:27:06.384Z,25.87
2022-11-16T01:29:36.146Z,24.30
2022-11-16T01:32:03.339Z,24.63
2022-11-16T01:34:31.503Z,26.03
2022-11-16T01:37:05.907Z,26.53
2022-11-16T01:39:37.120Z,26.30
2022-11-16T01:42:04.859Z,26.30
2022-11-16T01:44:31.817Z,25.77
2022-11-16T01:47:13.632Z,26.37
2022-11-16T01:49:46.582Z,25.77
2022-11-16T01:52:17.920Z,25.00
2022-11-16T01:54:46.682Z,26.27
2022-11-16T01:57:16.149Z,27.17
2022-11-16T01:59:53.882Z,25.73
2022-11-16T02:02:23.320Z,26.77
2022-11-16T02:04:52.081Z,25.67
2022-11-16T02:08:02.887Z,26.03
2022-11-16T02:10:49.786Z,25.77
2022-11-16T02:13:23.267Z,22.67
2022-11-16T02:15:58.056Z,23.80
2022-11-16T02:18:32.517Z,26.07
2022-11-16T02:21:02.691Z,24.07
2022-11-16T02:23:32.995Z,25.50
2022-11-16T02:26:12.048Z,26.23
2022-11-16T02:28:45.097Z,25.70
2022-11-16T02:31:14.266Z,26.13
2022-11-16T02:33:41.948Z,26.70
2022-11-16T02:36:10.813Z,25.47
2022-11-16T02:38:39.911Z,31.17
2022-11-16T02:41:18.155Z,35.20
2022-11-16T02:43:47.809Z,36.37
2022-11-16T02:46:22.969Z,36.73
2022-11-16T02:48:53.127Z,38.67
2022-11-16T02:51:21.171Z,44.00
2022-11-16T02:53:58.016Z,50.80
2022-11-16T02:56:25.779Z,54.90
2022-11-16T02:58:53.129Z,56.03
2022-11-16T03:01:25.457Z,57.40
2022-11-16T03:03:59.653Z,61.50
2022-11-16T03:06:33.265Z,60.57
2022-11-16T03:09:02.409Z,60.77
2022-11-16T03:11:50.090Z,60.40
2022-11-16T03:14:19.079Z,58.97
2022-11-16T03:17:12.107Z,59.13
2022-11-16T03:19:43.185Z,58.00
2022-11-16T03:22:09.985Z,57.53
2022-11-16T03:24:38.832Z,58.73
2022-11-16T03:27:08.698Z,56.80
2022-11-16T03:29:45.131Z,55.43
2022-11-16T03:32:15.106Z,55.07
2022-11-16T03:34:43.967Z,54.43
2022-11-16T03:37:11.371Z,54.70
2022-11-16T03:39:38.951Z,54.50
2022-11-16T03:42:10.799Z,52.70
2022-11-16T03:44:38.853Z,53.43
2022-11-16T03:47:07.199Z,54.20
2022-11-16T03:49:34.195Z,53.03
2022-11-16T03:52:02.355Z,52.37
2022-11-16T03:54:30.476Z,52.70
2022-11-16T03:56:57.302Z,51.87
2022-11-16T03:59:24.338Z,49.80
2022-11-16T04:01:51.133Z,51.83
2022-11-16T04:04:36.849Z,50.17
2022-11-16T04:07:23.237Z,47.90
2022-11-16T04:10:08.569Z,50.43
2022-11-16T04:12:54.573Z,48.07
2022-11-16T04:15:39.917Z,48.97
2022-11-16T04:18:27.696Z,48.73
2022-11-16T04:21:13.225Z,49.03
2022-11-16T04:23:58.637Z,47.70
2022-11-16T04:26:45.867Z,46.90
2022-11-16T04:29:13.560Z,45.37
2022-11-16T04:31:59.084Z,43.20
2022-11-16T04:34:44.572Z,42.37
2022-11-16T04:37:33.916Z,41.23
2022-11-16T04:40:01.428Z,39.20
2022-11-16T04:42:28.312Z,37.80
2022-11-16T04:45:13.939Z,40.17
2022-11-16T04:47:48.297Z,38.40
2022-11-16T04:50:15.810Z,38.03
2022-11-16T04:52:43.346Z,36.50
2022-11-16T04:55:12.699Z,36.60
2022-11-16T04:57:39.780Z,38.67
2022-11-16T05:00:07.423Z,36.40
2022-11-16T05:02:36.109Z,37.03
2022-11-16T05:05:02.998Z,37.13
2022-11-16T05:07:30.287Z,36.70
2022-11-16T05:10:05.548Z,37.33
2022-11-16T05:12:33.533Z,37.47
2022-11-16T05:15:03.342Z,35.23
2022-11-16T05:17:32.437Z,36.47
2022-11-16T05:20:19.690Z,36.00
2022-11-16T05:22:56.708Z,35.83
2022-11-16T05:25:26.150Z,37.17
2022-11-16T05:27:53.684Z,35.90
2022-11-16T05:30:20.714Z,34.83
2022-11-16T05:32:47.590Z,36.07
2022-11-16T05:35:16.391Z,34.73
2022-11-16T05:37:43.258Z,34.90
2022-11-16T05:40:10.651Z,35.27
2022-11-16T05:42:46.363Z,32.73
2022-11-16T05:45:17.179Z,34.87
2022-11-16T05:47:47.514Z,32.50
2022-11-16T05:50:15.332Z,33.07
2022-11-16T05:52:46.450Z,32.97
2022-11-16T05:55:13.341Z,34.20
2022-11-16T05:57:42.935Z,32.40
2022-11-16T06:00:11.150Z,32.97
2022-11-16T06:02:48.205Z,33.87
2022-11-16T06:05:21.912Z,33.13
2022-11-16T06:07:49.064Z,32.53
2022-11-16T06:10:16.126Z,33.03
2022-11-16T06:12:45.339Z,31.23
2022-11-16T06:15:12.618Z,31.67
2022-11-16T06:17:39.954Z,31.50
2022-11-16T06:20:08.859Z,28.80
2022-11-16T06:22:36.653Z,30.27
2022-11-16T06:25:06.887Z,31.10
2022-11-16T06:27:40.754Z,30.67
2022-11-16T06:30:09.723Z,31.67
2022-11-16T06:32:38.116Z,30.90
2022-11-16T06:35:06.371Z,31.67
2022-11-16T06:37:33.646Z,31.40
2022-11-16T06:40:00.531Z,30.43
2022-11-16T06:42:30.707Z,31.77
2022-11-16T06:44:59.060Z,33.67
2022-11-16T06:47:30.349Z,30.77
2022-11-16T06:50:00.898Z,31.33
2022-11-16T06:52:28.447Z,32.90
2022-11-16T06:54:55.639Z,31.13
2022-11-16T06:57:22.571Z,32.17
2022-11-16T06:59:49.781Z,32.83
2022-11-16T07:02:16.670Z,32.50
2022-11-16T07:04:44.887Z,33.53
2022-11-16T07:07:11.730Z,30.90
2022-11-16T07:09:39.415Z,29.33
2022-11-16T07:12:06.369Z,31.27
2022-11-16T07:14:36.970Z,30.13
2022-11-16T07:17:09.480Z,27.90
2022-11-16T07:19:37.081Z,28.73
2022-11-16T07:22:05.271Z,29.40
2022-11-16T07:24:32.504Z,29.53
2022-11-16T07:26:59.418Z,29.23
2022-11-16T07:29:32.270Z,28.53
2022-11-16T07:32:18.373Z,28.20
2022-11-16T07:35:05.969Z,27.37
2022-11-16T07:37:32.968Z,27.20
2022-11-16T07:39:59.767Z,28.33
2022-11-16T07:42:26.691Z,28.67
2022-11-16T07:45:12.440Z,27.00
2022-11-16T07:47:45.695Z,28.13
2022-11-16T07:50:21.512Z,27.63
2022-11-16T07:52:48.484Z,29.07
2022-11-16T07:55:24.515Z,29.40
2022-11-16T07:57:53.581Z,26.93
2022-11-16T08:00:21.627Z,25.97
2022-11-16T08:02:57.521Z,25.40
2022-11-16T08:05:25.556Z,24.80
2022-11-16T08:07:52.471Z,26.73
2022-11-16T08:10:23.508Z,25.30
2022-11-16T08:12:50.562Z,26.07
2022-11-16T08:15:19.578Z,23.00
2022-11-16T08:17:46.728Z,24.00
2022-11-16T08:20:13.844Z,24.70
2022-11-16T08:22:41.582Z,23.10
2022-11-16T08:25:09.279Z,20.97
2022-11-16T08:27:37.735Z,21.87
2022-11-16T08:30:09.985Z,20.87
2022-11-16T08:32:39.320Z,21.87
2022-11-16T08:35:06.588Z,21.53
2022-11-16T08:37:34.367Z,22.23
2022-11-16T08:40:04.263Z,29.70
2022-11-16T08:42:40.785Z,26.00
2022-11-16T08:45:10.378Z,23.10
2022-11-16T08:47:37.137Z,22.77
2022-11-16T08:50:05.674Z,24.67
2022-11-16T08:52:32.753Z,20.97
2022-11-16T08:55:00.762Z,21.17
2022-11-16T08:57:28.040Z,21.63
2022-11-16T08:59:58.854Z,27.10
2022-11-16T09:02:25.917Z,32.83
2022-11-16T09:04:53.296Z,22.23
2022-11-16T09:07:20.913Z,19.10
2022-11-16T09:09:47.882Z,18.50
2022-11-16T09:12:14.657Z,17.03
2022-11-16T09:14:41.440Z,15.47
2022-11-16T09:17:08.278Z,16.40
2022-11-16T09:19:35.075Z,15.80
2022-11-16T09:22:02.109Z,15.37
2022-11-16T09:24:28.884Z,14.63
2022-11-16T09:26:57.668Z,14.57
2022-11-16T09:29:24.590Z,14.60
2022-11-16T09:31:51.465Z,13.53
2022-11-16T09:34:18.203Z,12.33
2022-11-16T09:36:45.099Z,15.83
2022-11-16T09:39:30.762Z,13.53
2022-11-16T09:42:10.710Z,12.47
2022-11-16T09:44:58.263Z,13.03
2022-11-16T09:47:38.756Z,12.40
2022-11-16T09:50:06.056Z,12.07
2022-11-16T09:52:51.329Z,12.67
2022-11-16T09:55:18.092Z,11.00
2022-11-16T09:57:45.873Z,10.97
2022-11-16T10:00:15.632Z,11.40
2022-11-16T10:02:44.527Z,10.47
2022-11-16T10:05:23.119Z,10.70
2022-11-16T10:07:59.271Z,9.67
2022-11-16T10:10:37.018Z,9.03
2022-11-16T10:13:16.067Z,9.43
2022-11-16T10:15:50.505Z,9.87
2022-11-16T10:18:35.999Z,9.23
2022-11-16T10:21:22.231Z,9.80
2022-11-16T10:24:08.490Z,9.37
2022-11-16T10:26:42.182Z,9.80
2022-11-16T10:29:10.410Z,9.17
2022-11-16T10:32:09.716Z,9.07
2022-11-16T10:34:42.334Z,14.27
2022-11-16T10:37:10.899Z,9.23
2022-11-16T10:39:41.149Z,9.07
2022-11-16T10:42:17.430Z,9.20
2022-11-16T10:44:46.185Z,8.93
2022-11-16T10:47:17.159Z,8.70
2022-11-16T10:49:48.534Z,8.47
2022-11-16T10:52:15.315Z,7.97
2022-11-16T10:54:44.370Z,8.97
2022-11-16T10:57:14.454Z,8.13
2022-11-16T10:59:41.196Z,9.23
2022-11-16T11:02:20.376Z,6.93
2022-11-16T11:05:01.174Z,7.80
2022-11-16T11:07:33.132Z,8.13
2022-11-16T11:10:00.012Z,8.23
2022-11-16T11:12:39.395Z,8.50
2022-11-16T11:15:06.489Z,8.10
2022-11-16T11:17:34.326Z,8.20
2022-11-16T11:20:06.184Z,8.77
2022-11-16T11:22:33.838Z,8.70
2022-11-16T11:25:01.721Z,7.57
2022-11-16T11:27:31.246Z,8.40
2022-11-16T11:29:58.904Z,8.77
2022-11-16T11:32:33.456Z,9.57
2022-11-16T11:35:01.243Z,9.30
2022-11-16T11:37:31.017Z,8.83
2022-11-16T11:40:24.413Z,8.10
2022-11-16T11:42:55.492Z,8.23
2022-11-16T11:45:25.202Z,10.50
2022-11-16T11:48:02.292Z,8.50
2022-11-16T11:50:47.777Z,7.47
2022-11-16T11:53:33.693Z,6.37
2022-11-16T11:56:00.727Z,5.50
2022-11-16T11:58:31.752Z,6.50
2022-11-16T12:01:12.251Z,10.13
2022-11-16T12:03:57.634Z,7.53
2022-11-16T12:06:33.451Z,6.77
2022-11-16T12:09:00.262Z,8.23
2022-11-16T12:11:59.620Z,7.43
2022-11-16T12:14:32.506Z,7.13
2022-11-16T12:16:59.417Z,7.20
2022-11-16T12:19:26.283Z,7.67
2022-11-16T12:21:56.023Z,6.33
2022-11-16T12:24:25.533Z,8.07
2022-11-16T12:26:58.282Z,6.73
2022-11-16T12:29:29.517Z,7.00
2022-11-16T12:31:56.527Z,6.10
2022-11-16T12:34:41.676Z,6.23
2022-11-16T12:37:14.302Z,5.43
2022-11-16T12:40:19.517Z,7.80
2022-11-16T12:42:53.336Z,8.40
2022-11-16T12:45:32.617Z,6.87
2022-11-16T12:47:59.636Z,8.30
2022-11-16T12:50:26.348Z,8.77
2022-11-16T12:53:11.777Z,6.80
2022-11-16T12:55:38.585Z,9.13
2022-11-16T12:58:05.320Z,7.73
2022-11-16T13:00:40.764Z,8.23
2022-11-16T13:03:34.180Z,9.97
2022-11-16T13:06:01.750Z,10.80
2022-11-16T13:08:48.716Z,13.33
2022-11-16T13:11:18.300Z,6.30
2022-11-16T13:13:52.645Z,7.37
2022-11-16T13:16:20.798Z,5.83
2022-11-16T13:18:47.678Z,6.13
2022-11-16T13:21:21.959Z,4.87
2022-11-16T13:23:51.810Z,4.43
2022-11-16T13:26:21.540Z,6.23
2022-11-16T13:29:04.438Z,6.40
2022-11-16T13:31:34.407Z,6.17
2022-11-16T13:34:02.209Z,7.30
2022-11-16T13:36:31.996Z,5.43
2022-11-16T13:38:59.072Z,7.30
2022-11-16T13:41:26.711Z,6.43
2022-11-16T13:43:53.576Z,10.03
2022-11-16T13:46:53.653Z,7.00
2022-11-16T13:49:19.119Z,12.50
2022-11-16T13:51:53.163Z,14.43
2022-11-16T13:54:45.728Z,10.83
2022-11-16T13:57:19.623Z,9.00
2022-11-16T13:59:47.827Z,9.87
2022-11-16T14:02:33.770Z,14.23
2022-11-16T14:05:01.992Z,14.87
2022-11-16T14:07:36.634Z,11.73
2022-11-16T14:10:05.927Z,10.73
2022-11-16T14:12:38.803Z,9.30
2022-11-16T14:15:23.049Z,6.47
2022-11-16T14:17:50.047Z,5.80
2022-11-16T14:20:24.720Z,5.77
2022-11-16T14:23:02.273Z,6.43
2022-11-16T14:25:40.693Z,6.50
2022-11-16T14:28:16.869Z,5.73
2022-11-16T14:30:50.335Z,6.00
2022-11-16T14:33:25.971Z,6.10
2022-11-16T14:35:54.050Z,5.90
2022-11-16T14:38:29.943Z,4.73
2022-11-16T14:40:59.616Z,4.73
2022-11-16T14:43:40.720Z,7.23
2022-11-16T14:46:17.362Z,4.60
2022-11-16T14:48:45.312Z,4.77
2022-11-16T14:51:30.956Z,5.93
2022-11-16T14:54:00.858Z,5.33
2022-11-16T14:56:28.102Z,6.03
2022-11-16T14:58:56.783Z,6.07
2022-11-16T15:01:28.515Z,6.03
2022-11-16T15:03:55.411Z,5.67
2022-11-16T15:06:23.023Z,4.83
2022-11-16T15:08:52.159Z,4.27
2022-11-16T15:11:51.229Z,4.40
2022-11-16T15:14:28.520Z,4.07
2022-11-16T15:16:56.377Z,3.77
2022-11-16T15:19:24.095Z,3.63
2022-11-16T15:21:54.716Z,4.40
2022-11-16T15:24:31.495Z,4.20
2022-11-16T15:27:19.008Z,4.93
2022-11-16T15:29:45.883Z,4.33
2022-11-16T15:32:15.754Z,4.07
2022-11-16T15:34:43.037Z,4.07
2022-11-16T15:37:15.260Z,3.87
2022-11-16T15:39:42.985Z,4.03
2022-11-16T15:42:13.981Z,4.57
2022-11-16T15:44:41.216Z,4.30
2022-11-16T15:47:10.639Z,4.13
2022-11-16T15:49:38.423Z,4.00
2022-11-16T15:52:05.599Z,4.53
2022-11-16T15:54:52.199Z,4.03
2022-11-16T15:57:20.027Z,4.20
2022-11-16T15:59:48.709Z,3.63
2022-11-16T16:02:17.825Z,4.93
2022-11-16T16:04:44.632Z,4.67
2022-11-16T16:07:12.765Z,5.57
2022-11-16T16:09:40.664Z,5.03
2022-11-16T16:12:16.796Z,4.90
2022-11-16T16:14:43.663Z,4.80
2022-11-16T16:17:11.602Z,4.43
2022-11-16T16:19:42.559Z,4.70
2022-11-16T16:22:14.032Z,3.83
2022-11-16T16:24:45.657Z,4.07
2022-11-16T16:27:16.967Z,3.90
2022-11-16T16:29:44.707Z,3.30
2022-11-16T16:32:13.295Z,3.10
2022-11-16T16:34:42.428Z,3.73
2022-11-16T16:37:12.062Z,3.70
2022-11-16T16:39:40.045Z,3.27
2022-11-16T16:42:09.627Z,3.07
2022-11-16T16:44:36.522Z,3.50
2022-11-16T16:47:03.267Z,3.87
2022-11-16T16:49:30.260Z,3.03
2022-11-16T16:51:57.224Z,3.90
2022-11-16T16:54:25.058Z,3.17
2022-11-16T16:56:52.109Z,3.00
2022-11-16T16:59:18.904Z,3.43
2022-11-16T17:01:45.693Z,3.30
2022-11-16T17:04:12.562Z,3.40
2022-11-16T17:06:43.798Z,9.07
2022-11-16T17:09:13.216Z,2.90
2022-11-16T17:11:40.022Z,3.53
2022-11-16T17:14:08.174Z,4.10
2022-11-16T17:16:35.630Z,4.30
2022-11-16T17:19:02.961Z,3.97
2022-11-16T17:21:29.946Z,3.63
2022-11-16T17:23:57.021Z,4.27
2022-11-16T17:26:25.186Z,4.57
2022-11-16T17:28:55.143Z,4.17
2022-11-16T17:31:21.995Z,6.37
2022-11-16T17:33:48.966Z,5.00
2022-11-16T17:36:16.407Z,4.50
2022-11-16T17:38:43.613Z,3.93
2022-11-16T17:41:14.389Z,4.20
2022-11-16T17:43:44.620Z,3.40
2022-11-16T17:46:12.689Z,3.80
2022-11-16T17:48:40.642Z,4.83
2022-11-16T17:51:08.116Z,4.03
2022-11-16T17:53:35.712Z,5.37
2022-11-16T17:56:03.422Z,4.60
2022-11-16T17:58:30.546Z,5.10
2022-11-16T18:00:57.487Z,5.10
2022-11-16T18:03:24.730Z,5.40
2022-11-16T18:05:52.033Z,6.30
2022-11-16T18:08:18.946Z,4.20
2022-11-16T18:10:45.684Z,6.30
2022-11-16T18:13:12.491Z,4.10
2022-11-16T18:15:42.382Z,3.23
2022-11-16T18:18:09.572Z,3.17
2022-11-16T18:20:37.278Z,3.10
2022-11-16T18:23:04.725Z,3.00
2022-11-16T18:25:34.377Z,3.90
2022-11-16T18:28:01.221Z,4.40
2022-11-16T18:30:27.998Z,4.40
2022-11-16T18:32:54.869Z,4.23
2022-11-16T18:35:21.777Z,4.63
2022-11-16T18:37:48.582Z,4.23
2022-11-16T18:40:15.721Z,4.73
2022-11-16T18:42:42.470Z,4.87
2022-11-16T18:45:09.467Z,5.77
2022-11-16T18:47:36.276Z,3.33
2022-11-16T18:50:03.129Z,3.60
2022-11-16T18:52:29.991Z,4.87
2022-11-16T18:54:56.798Z,4.07
2022-11-16T18:57:24.416Z,5.40
2022-11-16T18:59:52.251Z,6.60
2022-11-16T19:02:19.654Z,5.63
2022-11-16T19:04:46.862Z,4.53
2022-11-16T19:07:14.629Z,6.87
2022-11-16T19:09:42.583Z,6.80
2022-11-16T19:12:09.795Z,5.00
2022-11-16T19:14:37.499Z,6.60
2022-11-16T19:17:05.467Z,7.23
2022-11-16T19:19:32.879Z,6.07
2022-11-16T19:21:59.912Z,5.27
2022-11-16T19:24:26.695Z,4.40
2022-11-16T19:26:53.534Z,3.73
2022-11-16T19:29:20.383Z,4.13
2022-11-16T19:31:47.166Z,3.63
2022-11-16T19:34:14.603Z,5.77
2022-11-16T19:36:41.589Z,5.03
2022-11-16T19:39:09.065Z,8.70
2022-11-16T19:41:36.756Z,5.53
2022-11-16T19:44:04.383Z,5.90
2022-11-16T19:46:32.385Z,7.00
2022-11-16T19:49:00.348Z,5.17
2022-11-16T19:51:28.408Z,10.30
2022-11-16T19:53:55.484Z,3.87
2022-11-16T19:56:22.900Z,3.50
2022-11-16T19:58:50.158Z,3.83
2022-11-16T20:01:17.334Z,4.40
2022-11-16T20:03:45.046Z,3.23
2022-11-16T20:06:22.100Z,2.93
2022-11-16T20:08:50.053Z,3.30
2022-11-16T20:11:16.785Z,2.90
2022-11-16T20:13:44.089Z,3.30
2022-11-16T20:16:11.796Z,2.73
2022-11-16T20:18:39.166Z,2.77
2022-11-16T20:21:06.293Z,2.80
2022-11-16T20:23:37.640Z,3.43
2022-11-16T20:26:05.985Z,2.77
2022-11-16T20:28:36.971Z,2.33
2022-11-16T20:31:05.451Z,2.33
2022-11-16T20:33:34.236Z,2.90
2022-11-16T20:36:02.316Z,2.93
2022-11-16T20:38:29.177Z,2.33
2022-11-16T20:40:55.950Z,3.23
2022-11-16T20:43:22.820Z,5.00
2022-11-16T20:45:53.700Z,4.40
2022-11-16T20:48:20.629Z,3.90
2022-11-16T20:50:51.769Z,4.67
2022-11-16T20:53:18.814Z,5.03
2022-11-16T20:55:46.074Z,6.07
2022-11-16T20:58:12.986Z,4.70
2022-11-16T21:00:39.749Z,5.57
2022-11-16T21:03:06.601Z,6.27
2022-11-16T21:05:33.384Z,5.47
2022-11-16T21:08:00.169Z,6.50
2022-11-16T21:10:26.995Z,6.23
2022-11-16T21:13:12.398Z,6.93
2022-11-16T21:15:39.197Z,11.97
2022-11-16T21:18:06.150Z,12.30
2022-11-16T21:20:32.883Z,11.90
2022-11-16T21:22:59.781Z,8.83
2022-11-16T21:25:26.672Z,8.43
2022-11-16T21:27:53.658Z,10.10
2022-11-16T21:30:20.453Z,9.03
2022-11-16T21:32:47.494Z,8.57
2022-11-16T21:35:14.667Z,7.87
2022-11-16T21:37:41.543Z,8.03
2022-11-16T21:40:08.958Z,6.00
2022-11-16T21:42:35.975Z,6.27
2022-11-16T21:45:02.770Z,6.00
2022-11-16T21:47:29.763Z,6.23
2022-11-16T21:50:29.989Z,10.37
2022-11-16T21:52:44.707Z,5.30
2022-11-16T21:55:12.100Z,4.53
2022-11-16T21:57:38.931Z,4.97
2022-11-16T22:00:06.019Z,4.20
2022-11-16T22:02:38.462Z,4.10
2022-11-16T22:05:24.170Z,3.27
2022-11-16T22:07:51.066Z,3.20
2022-11-16T22:10:18.212Z,3.33
2022-11-16T22:15:30.058Z,5.70
2022-11-16T22:17:57.135Z,4.23
2022-11-16T22:20:24.168Z,3.23
2022-11-16T22:22:51.136Z,3.90
2022-11-16T22:25:18.999Z,4.23
2022-11-16T22:28:13.841Z,4.70
2022-11-16T22:30:36.558Z,4.47
2022-11-16T22:33:03.513Z,3.20
2022-11-16T22:35:30.502Z,3.83
2022-11-16T22:37:58.212Z,3.40
2022-11-16T22:40:25.286Z,3.87
2022-11-16T22:42:53.693Z,3.00
2022-11-16T22:45:20.697Z,3.13
2022-11-16T22:47:49.667Z,3.27
2022-11-16T22:50:20.769Z,2.80
2022-11-16T22:52:47.726Z,2.80
2022-11-16T22:55:14.722Z,3.33
2022-11-16T22:57:41.753Z,3.10
2022-11-16T23:00:10.238Z,4.13
2022-11-16T23:02:37.239Z,4.73
2022-11-16T23:05:04.353Z,5.57
2022-11-16T23:07:31.494Z,9.63
2022-11-16T23:09:58.527Z,3.63
2022-11-16T23:12:43.822Z,3.50
2022-11-16T23:15:32.501Z,2.53
2022-11-16T23:17:59.576Z,2.97
2022-11-16T23:20:45.352Z,3.00
2022-11-16T23:23:37.591Z,2.57
2022-11-16T23:26:25.858Z,2.40
2022-11-16T23:28:52.902Z,1.90
2022-11-16T23:31:19.840Z,2.13
2022-11-16T23:33:48.028Z,2.37
2022-11-16T23:36:15.186Z,1.60
2022-11-16T23:38:42.262Z,2.33
2022-11-16T23:41:27.452Z,3.03
2022-11-16T23:44:00.316Z,2.33
2022-11-16T23:46:28.729Z,2.30
2022-11-16T23:48:55.979Z,2.57
2022-11-16T23:51:23.723Z,2.70
2022-11-16T23:53:51.425Z,3.03
2022-11-16T23:56:19.191Z,4.17
2022-11-16T23:58:46.518Z,4.00
